sensor_id;sensor_type;location;lat;lon;timestamp;P1;durP1;ratioP1;P2;durP2;ratioP2
23743;SDS011;12052;53.478;10.182;2022-12-07T00:01:05;19.02;;;9.27;;
23743;SDS011;12052;53.478;10.182;2022-12-07T00:03:32;21.88;;;9.45;;
23743;SDS011;12052;53.478;10.182;2022-12-07T00:05:58;21.45;;;8.50;;
23743;SDS011;12052;53.478;10.182;2022-12-07T00:08:24;18.33;;;8.50;;
23743;SDS011;12052;53.478;10.182;2022-12-07T00:10:50;20.98;;;8.80;;
23743;SDS011;12052;53.478;10.182;2022-12-07T00:13:15;22.98;;;8.95;;
23743;SDS011;12052;53.478;10.182;2022-12-07T00:15:41;19.25;;;8.90;;
23743;SDS011;12052;53.478;10.182;2022-12-07T00:18:06;18.42;;;9.35;;
23743;SDS011;12052;53.478;10.182;2022-12-07T00:20:32;17.73;;;8.07;;
23743;SDS011;12052;53.478;10.182;2022-12-07T00:22:58;20.35;;;9.15;;
23743;SDS011;12052;53.478;10.182;2022-12-07T00:25:24;26.75;;;10.25;;
23743;SDS011;12052;53.478;10.182;2022-12-07T00:27:50;20.50;;;9.00;;
23743;SDS011;12052;53.478;10.182;2022-12-07T00:30:18;20.42;;;9.63;;
23743;SDS011;12052;53.478;10.182;2022-12-07T00:32:43;19.65;;;8.95;;
23743;SDS011;12052;53.478;10.182;2022-12-07T00:35:09;19.02;;;9.98;;
23743;SDS011;12052;53.478;10.182;2022-12-07T00:37:34;26.52;;;8.73;;
23743;SDS011;12052;53.478;10.182;2022-12-07T00:40:00;20.15;;;9.85;;
23743;SDS011;12052;53.478;10.182;2022-12-07T00:42:25;18.13;;;8.82;;
23743;SDS011;12052;53.478;10.182;2022-12-07T00:44:51;18.80;;;8.50;;
23743;SDS011;12052;53.478;10.182;2022-12-07T00:47:17;21.85;;;10.82;;
23743;SDS011;12052;53.478;10.182;2022-12-07T00:49:42;16.83;;;8.60;;
23743;SDS011;12052;53.478;10.182;2022-12-07T00:52:08;21.02;;;8.35;;
23743;SDS011;12052;53.478;10.182;2022-12-07T00:54:33;18.02;;;8.15;;
23743;SDS011;12052;53.478;10.182;2022-12-07T00:56:59;16.67;;;7.47;;
23743;SDS011;12052;53.478;10.182;2022-12-07T00:59:24;17.95;;;8.15;;
23743;SDS011;12052;53.478;10.182;2022-12-07T01:01:50;17.38;;;8.70;;
23743;SDS011;12052;53.478;10.182;2022-12-07T01:04:15;15.20;;;7.82;;
23743;SDS011;12052;53.478;10.182;2022-12-07T01:06:41;14.30;;;6.93;;
23743;SDS011;12052;53.478;10.182;2022-12-07T01:09:06;21.48;;;7.72;;
23743;SDS011;12052;53.478;10.182;2022-12-07T01:11:32;16.60;;;8.30;;
23743;SDS011;12052;53.478;10.182;2022-12-07T01:13:58;19.17;;;8.77;;
23743;SDS011;12052;53.478;10.182;2022-12-07T01:16:26;18.40;;;8.30;;
23743;SDS011;12052;53.478;10.182;2022-12-07T01:18:54;21.58;;;7.38;;
23743;SDS011;12052;53.478;10.182;2022-12-07T01:21:22;17.98;;;8.05;;
23743;SDS011;12052;53.478;10.182;2022-12-07T01:23:50;10.50;;;5.93;;
23743;SDS011;12052;53.478;10.182;2022-12-07T01:26:17;14.43;;;6.80;;
23743;SDS011;12052;53.478;10.182;2022-12-07T01:28:44;16.30;;;7.32;;
23743;SDS011;12052;53.478;10.182;2022-12-07T01:31:12;18.45;;;6.97;;
23743;SDS011;12052;53.478;10.182;2022-12-07T01:33:40;11.60;;;6.18;;
23743;SDS011;12052;53.478;10.182;2022-12-07T01:36:07;17.08;;;7.63;;
23743;SDS011;12052;53.478;10.182;2022-12-07T01:38:38;16.50;;;6.93;;
23743;SDS011;12052;53.478;10.182;2022-12-07T01:41:04;19.33;;;6.53;;
23743;SDS011;12052;53.478;10.182;2022-12-07T01:43:30;12.43;;;4.45;;
23743;SDS011;12052;53.478;10.182;2022-12-07T01:45:58;12.57;;;6.60;;
23743;SDS011;12052;53.478;10.182;2022-12-07T01:48:28;17.20;;;6.40;;
23743;SDS011;12052;53.478;10.182;2022-12-07T01:50:55;16.40;;;6.60;;
23743;SDS011;12052;53.478;10.182;2022-12-07T01:53:25;11.77;;;6.47;;
23743;SDS011;12052;53.478;10.182;2022-12-07T01:55:54;18.42;;;6.97;;
23743;SDS011;12052;53.478;10.182;2022-12-07T01:58:21;19.25;;;7.18;;
23743;SDS011;12052;53.478;10.182;2022-12-07T02:00:48;15.55;;;6.43;;
23743;SDS011;12052;53.478;10.182;2022-12-07T02:03:22;17.83;;;6.60;;
23743;SDS011;12052;53.478;10.182;2022-12-07T02:05:53;13.50;;;5.70;;
23743;SDS011;12052;53.478;10.182;2022-12-07T02:08:20;12.95;;;5.38;;
23743;SDS011;12052;53.478;10.182;2022-12-07T02:10:46;15.23;;;5.53;;
23743;SDS011;12052;53.478;10.182;2022-12-07T02:13:19;17.67;;;6.10;;
23743;SDS011;12052;53.478;10.182;2022-12-07T02:18:30;20.92;;;5.10;;
23743;SDS011;12052;53.478;10.182;2022-12-07T02:21:19;13.15;;;6.65;;
23743;SDS011;12052;53.478;10.182;2022-12-07T02:23:55;17.23;;;7.32;;
23743;SDS011;12052;53.478;10.182;2022-12-07T02:29:33;18.50;;;5.95;;
23743;SDS011;12052;53.478;10.182;2022-12-07T02:32:10;10.45;;;4.32;;
23743;SDS011;12052;53.478;10.182;2022-12-07T02:37:28;10.82;;;5.10;;
23743;SDS011;12052;53.478;10.182;2022-12-07T02:40:08;14.07;;;6.47;;
23743;SDS011;12052;53.478;10.182;2022-12-07T02:42:49;16.13;;;5.15;;
23743;SDS011;12052;53.478;10.182;2022-12-07T02:45:21;14.02;;;5.38;;
23743;SDS011;12052;53.478;10.182;2022-12-07T02:47:51;14.18;;;6.90;;
23743;SDS011;12052;53.478;10.182;2022-12-07T02:50:20;16.55;;;6.28;;
23743;SDS011;12052;53.478;10.182;2022-12-07T02:52:46;22.00;;;6.00;;
23743;SDS011;12052;53.478;10.182;2022-12-07T02:55:12;20.70;;;6.47;;
23743;SDS011;12052;53.478;10.182;2022-12-07T03:00:17;16.55;;;6.07;;
23743;SDS011;12052;53.478;10.182;2022-12-07T03:10:57;18.38;;;5.63;;
23743;SDS011;12052;53.478;10.182;2022-12-07T03:13:29;17.70;;;5.88;;
23743;SDS011;12052;53.478;10.182;2022-12-07T03:18:37;10.63;;;4.97;;
23743;SDS011;12052;53.478;10.182;2022-12-07T03:21:08;18.48;;;4.93;;
23743;SDS011;12052;53.478;10.182;2022-12-07T03:23:39;14.38;;;5.30;;
23743;SDS011;12052;53.478;10.182;2022-12-07T03:26:06;11.68;;;4.28;;
23743;SDS011;12052;53.478;10.182;2022-12-07T03:28:36;13.65;;;4.78;;
23743;SDS011;12052;53.478;10.182;2022-12-07T03:33:37;14.20;;;4.35;;
23743;SDS011;12052;53.478;10.182;2022-12-07T03:36:20;10.75;;;4.55;;
23743;SDS011;12052;53.478;10.182;2022-12-07T03:41:26;10.57;;;4.05;;
23743;SDS011;12052;53.478;10.182;2022-12-07T03:43:56;12.05;;;3.65;;
23743;SDS011;12052;53.478;10.182;2022-12-07T03:46:28;8.90;;;4.10;;
23743;SDS011;12052;53.478;10.182;2022-12-07T03:52:05;12.75;;;3.28;;
23743;SDS011;12052;53.478;10.182;2022-12-07T03:54:52;10.32;;;2.83;;
23743;SDS011;12052;53.478;10.182;2022-12-07T03:57:28;12.55;;;3.67;;
23743;SDS011;12052;53.478;10.182;2022-12-07T03:59:55;10.55;;;3.50;;
23743;SDS011;12052;53.478;10.182;2022-12-07T04:02:22;5.22;;;3.47;;
23743;SDS011;12052;53.478;10.182;2022-12-07T04:04:51;13.45;;;3.20;;
23743;SDS011;12052;53.478;10.182;2022-12-07T04:07:17;13.13;;;3.70;;
23743;SDS011;12052;53.478;10.182;2022-12-07T04:09:43;11.35;;;3.72;;
23743;SDS011;12052;53.478;10.182;2022-12-07T04:12:09;6.35;;;2.70;;
23743;SDS011;12052;53.478;10.182;2022-12-07T04:14:35;11.68;;;3.30;;
23743;SDS011;12052;53.478;10.182;2022-12-07T04:17:00;6.05;;;2.63;;
23743;SDS011;12052;53.478;10.182;2022-12-07T04:19:27;6.75;;;2.22;;
23743;SDS011;12052;53.478;10.182;2022-12-07T04:21:55;7.05;;;2.78;;
23743;SDS011;12052;53.478;10.182;2022-12-07T04:24:21;6.32;;;2.85;;
23743;SDS011;12052;53.478;10.182;2022-12-07T04:26:48;11.93;;;2.85;;
23743;SDS011;12052;53.478;10.182;2022-12-07T04:29:14;10.40;;;3.10;;
23743;SDS011;12052;53.478;10.182;2022-12-07T04:31:40;13.00;;;2.90;;
23743;SDS011;12052;53.478;10.182;2022-12-07T04:34:06;4.45;;;2.63;;
23743;SDS011;12052;53.478;10.182;2022-12-07T04:36:32;7.13;;;2.28;;
23743;SDS011;12052;53.478;10.182;2022-12-07T04:38:58;4.25;;;2.15;;
23743;SDS011;12052;53.478;10.182;2022-12-07T04:41:24;8.10;;;2.65;;
23743;SDS011;12052;53.478;10.182;2022-12-07T04:43:54;7.63;;;2.58;;
23743;SDS011;12052;53.478;10.182;2022-12-07T04:46:24;6.93;;;2.42;;
23743;SDS011;12052;53.478;10.182;2022-12-07T04:48:51;11.20;;;2.28;;
23743;SDS011;12052;53.478;10.182;2022-12-07T04:51:22;3.58;;;2.08;;
23743;SDS011;12052;53.478;10.182;2022-12-07T04:53:49;5.82;;;2.38;;
23743;SDS011;12052;53.478;10.182;2022-12-07T04:56:15;4.78;;;1.73;;
23743;SDS011;12052;53.478;10.182;2022-12-07T04:58:42;9.57;;;2.45;;
23743;SDS011;12052;53.478;10.182;2022-12-07T05:01:09;9.00;;;2.30;;
23743;SDS011;12052;53.478;10.182;2022-12-07T05:03:35;7.05;;;2.78;;
23743;SDS011;12052;53.478;10.182;2022-12-07T05:06:02;6.10;;;2.05;;
23743;SDS011;12052;53.478;10.182;2022-12-07T05:08:28;4.60;;;2.45;;
23743;SDS011;12052;53.478;10.182;2022-12-07T05:10:53;8.55;;;2.90;;
23743;SDS011;12052;53.478;10.182;2022-12-07T05:13:19;3.22;;;2.05;;
23743;SDS011;12052;53.478;10.182;2022-12-07T05:15:46;7.15;;;2.25;;
23743;SDS011;12052;53.478;10.182;2022-12-07T05:18:12;5.43;;;2.55;;
23743;SDS011;12052;53.478;10.182;2022-12-07T05:20:38;2.70;;;1.90;;
23743;SDS011;12052;53.478;10.182;2022-12-07T05:23:04;3.80;;;2.00;;
23743;SDS011;12052;53.478;10.182;2022-12-07T05:25:30;9.40;;;2.90;;
23743;SDS011;12052;53.478;10.182;2022-12-07T05:27:55;8.65;;;2.03;;
23743;SDS011;12052;53.478;10.182;2022-12-07T05:30:21;5.13;;;2.30;;
23743;SDS011;12052;53.478;10.182;2022-12-07T05:32:48;5.32;;;2.03;;
23743;SDS011;12052;53.478;10.182;2022-12-07T05:35:13;5.20;;;1.95;;
23743;SDS011;12052;53.478;10.182;2022-12-07T05:37:39;3.63;;;2.17;;
23743;SDS011;12052;53.478;10.182;2022-12-07T05:40:05;8.35;;;2.33;;
23743;SDS011;12052;53.478;10.182;2022-12-07T05:42:31;5.88;;;2.40;;
23743;SDS011;12052;53.478;10.182;2022-12-07T05:44:57;6.65;;;2.50;;
23743;SDS011;12052;53.478;10.182;2022-12-07T05:47:22;6.38;;;2.22;;
23743;SDS011;12052;53.478;10.182;2022-12-07T05:49:48;5.45;;;2.40;;
23743;SDS011;12052;53.478;10.182;2022-12-07T05:52:14;11.65;;;2.88;;
23743;SDS011;12052;53.478;10.182;2022-12-07T05:54:39;3.50;;;2.05;;
23743;SDS011;12052;53.478;10.182;2022-12-07T05:57:05;5.07;;;1.90;;
23743;SDS011;12052;53.478;10.182;2022-12-07T05:59:30;6.90;;;2.22;;
23743;SDS011;12052;53.478;10.182;2022-12-07T06:02:01;6.03;;;2.00;;
23743;SDS011;12052;53.478;10.182;2022-12-07T06:04:29;7.95;;;2.58;;
23743;SDS011;12052;53.478;10.182;2022-12-07T06:06:56;6.95;;;2.08;;
23743;SDS011;12052;53.478;10.182;2022-12-07T06:09:22;7.57;;;2.65;;
23743;SDS011;12052;53.478;10.182;2022-12-07T06:11:49;4.60;;;2.65;;
23743;SDS011;12052;53.478;10.182;2022-12-07T06:14:33;6.00;;;2.28;;
23743;SDS011;12052;53.478;10.182;2022-12-07T06:16:59;5.35;;;2.63;;
23743;SDS011;12052;53.478;10.182;2022-12-07T06:19:25;3.60;;;1.70;;
23743;SDS011;12052;53.478;10.182;2022-12-07T06:21:51;6.00;;;2.50;;
23743;SDS011;12052;53.478;10.182;2022-12-07T06:24:17;5.35;;;2.45;;
23743;SDS011;12052;53.478;10.182;2022-12-07T06:26:43;5.13;;;2.17;;
23743;SDS011;12052;53.478;10.182;2022-12-07T06:29:10;8.30;;;2.50;;
23743;SDS011;12052;53.478;10.182;2022-12-07T06:31:36;3.70;;;2.17;;
23743;SDS011;12052;53.478;10.182;2022-12-07T06:34:04;3.80;;;1.90;;
23743;SDS011;12052;53.478;10.182;2022-12-07T06:36:31;8.45;;;2.28;;
23743;SDS011;12052;53.478;10.182;2022-12-07T06:38:57;4.80;;;2.30;;
23743;SDS011;12052;53.478;10.182;2022-12-07T06:41:23;3.40;;;2.05;;
23743;SDS011;12052;53.478;10.182;2022-12-07T06:43:49;3.63;;;2.20;;
23743;SDS011;12052;53.478;10.182;2022-12-07T06:46:15;3.80;;;1.92;;
23743;SDS011;12052;53.478;10.182;2022-12-07T06:48:41;4.05;;;2.08;;
23743;SDS011;12052;53.478;10.182;2022-12-07T06:51:07;4.28;;;2.53;;
23743;SDS011;12052;53.478;10.182;2022-12-07T06:53:34;4.32;;;2.10;;
23743;SDS011;12052;53.478;10.182;2022-12-07T06:56:00;5.43;;;2.13;;
23743;SDS011;12052;53.478;10.182;2022-12-07T06:58:26;2.47;;;1.65;;
23743;SDS011;12052;53.478;10.182;2022-12-07T07:00:52;4.88;;;2.30;;
23743;SDS011;12052;53.478;10.182;2022-12-07T07:03:18;4.20;;;2.25;;
23743;SDS011;12052;53.478;10.182;2022-12-07T07:05:43;3.45;;;2.38;;
23743;SDS011;12052;53.478;10.182;2022-12-07T07:08:09;4.65;;;2.22;;
23743;SDS011;12052;53.478;10.182;2022-12-07T07:10:35;3.00;;;2.10;;
23743;SDS011;12052;53.478;10.182;2022-12-07T07:13:01;4.22;;;2.13;;
23743;SDS011;12052;53.478;10.182;2022-12-07T07:15:27;5.40;;;1.88;;
23743;SDS011;12052;53.478;10.182;2022-12-07T07:17:53;3.40;;;1.85;;
23743;SDS011;12052;53.478;10.182;2022-12-07T07:20:19;6.28;;;1.95;;
23743;SDS011;12052;53.478;10.182;2022-12-07T07:22:44;5.70;;;1.67;;
23743;SDS011;12052;53.478;10.182;2022-12-07T07:25:10;4.10;;;1.70;;
23743;SDS011;12052;53.478;10.182;2022-12-07T07:27:36;7.20;;;2.33;;
23743;SDS011;12052;53.478;10.182;2022-12-07T07:30:01;4.25;;;1.65;;
23743;SDS011;12052;53.478;10.182;2022-12-07T07:32:28;3.35;;;1.60;;
23743;SDS011;12052;53.478;10.182;2022-12-07T07:34:53;5.07;;;1.70;;
23743;SDS011;12052;53.478;10.182;2022-12-07T07:37:19;3.03;;;1.92;;
23743;SDS011;12052;53.478;10.182;2022-12-07T07:39:44;3.03;;;1.90;;
23743;SDS011;12052;53.478;10.182;2022-12-07T07:42:10;3.15;;;1.30;;
23743;SDS011;12052;53.478;10.182;2022-12-07T07:44:35;4.93;;;1.83;;
23743;SDS011;12052;53.478;10.182;2022-12-07T07:47:01;3.03;;;1.45;;
23743;SDS011;12052;53.478;10.182;2022-12-07T07:49:27;3.55;;;1.55;;
23743;SDS011;12052;53.478;10.182;2022-12-07T07:51:53;6.38;;;2.00;;
23743;SDS011;12052;53.478;10.182;2022-12-07T07:54:18;11.15;;;1.90;;
23743;SDS011;12052;53.478;10.182;2022-12-07T07:56:44;5.95;;;1.73;;
23743;SDS011;12052;53.478;10.182;2022-12-07T07:59:09;8.05;;;1.98;;
23743;SDS011;12052;53.478;10.182;2022-12-07T08:01:35;5.07;;;1.92;;
23743;SDS011;12052;53.478;10.182;2022-12-07T08:04:00;8.82;;;2.60;;
23743;SDS011;12052;53.478;10.182;2022-12-07T08:06:26;6.18;;;3.03;;
23743;SDS011;12052;53.478;10.182;2022-12-07T08:08:52;6.43;;;2.65;;
23743;SDS011;12052;53.478;10.182;2022-12-07T08:11:17;5.80;;;2.20;;
23743;SDS011;12052;53.478;10.182;2022-12-07T08:13:46;6.97;;;2.13;;
23743;SDS011;12052;53.478;10.182;2022-12-07T08:16:12;6.75;;;1.90;;
23743;SDS011;12052;53.478;10.182;2022-12-07T08:18:38;7.72;;;1.95;;
23743;SDS011;12052;53.478;10.182;2022-12-07T08:21:06;2.55;;;1.17;;
23743;SDS011;12052;53.478;10.182;2022-12-07T08:23:32;4.68;;;2.10;;
23743;SDS011;12052;53.478;10.182;2022-12-07T08:26:09;4.88;;;1.38;;
23743;SDS011;12052;53.478;10.182;2022-12-07T08:28:36;2.22;;;1.10;;
23743;SDS011;12052;53.478;10.182;2022-12-07T08:31:06;4.80;;;1.50;;
23743;SDS011;12052;53.478;10.182;2022-12-07T08:33:36;7.82;;;1.50;;
23743;SDS011;12052;53.478;10.182;2022-12-07T08:36:03;4.57;;;1.40;;
23743;SDS011;12052;53.478;10.182;2022-12-07T08:38:30;8.40;;;1.75;;
23743;SDS011;12052;53.478;10.182;2022-12-07T08:40:57;6.70;;;1.77;;
23743;SDS011;12052;53.478;10.182;2022-12-07T08:43:23;5.88;;;1.35;;
23743;SDS011;12052;53.478;10.182;2022-12-07T08:45:53;3.53;;;1.40;;
23743;SDS011;12052;53.478;10.182;2022-12-07T08:48:26;6.70;;;1.80;;
23743;SDS011;12052;53.478;10.182;2022-12-07T08:50:51;6.65;;;1.58;;
23743;SDS011;12052;53.478;10.182;2022-12-07T08:53:17;2.72;;;1.42;;
23743;SDS011;12052;53.478;10.182;2022-12-07T08:55:43;4.63;;;1.80;;
23743;SDS011;12052;53.478;10.182;2022-12-07T08:58:11;9.00;;;2.13;;
23743;SDS011;12052;53.478;10.182;2022-12-07T09:00:36;6.78;;;2.20;;
23743;SDS011;12052;53.478;10.182;2022-12-07T09:03:02;5.22;;;1.58;;
23743;SDS011;12052;53.478;10.182;2022-12-07T09:05:28;7.45;;;1.83;;
23743;SDS011;12052;53.478;10.182;2022-12-07T09:07:54;7.07;;;2.08;;
23743;SDS011;12052;53.478;10.182;2022-12-07T09:10:24;7.32;;;2.88;;
23743;SDS011;12052;53.478;10.182;2022-12-07T09:12:51;7.03;;;1.55;;
23743;SDS011;12052;53.478;10.182;2022-12-07T09:15:16;2.92;;;1.45;;
23743;SDS011;12052;53.478;10.182;2022-12-07T09:17:42;5.05;;;1.70;;
23743;SDS011;12052;53.478;10.182;2022-12-07T09:20:07;3.40;;;1.27;;
23743;SDS011;12052;53.478;10.182;2022-12-07T09:22:33;4.95;;;1.58;;
23743;SDS011;12052;53.478;10.182;2022-12-07T09:24:59;8.20;;;1.77;;
23743;SDS011;12052;53.478;10.182;2022-12-07T09:27:26;7.95;;;1.45;;
23743;SDS011;12052;53.478;10.182;2022-12-07T09:29:52;8.48;;;1.50;;
23743;SDS011;12052;53.478;10.182;2022-12-07T09:32:17;7.88;;;1.80;;
23743;SDS011;12052;53.478;10.182;2022-12-07T09:34:43;8.60;;;1.80;;
23743;SDS011;12052;53.478;10.182;2022-12-07T09:37:09;4.75;;;1.17;;
23743;SDS011;12052;53.478;10.182;2022-12-07T09:39:37;3.65;;;1.70;;
23743;SDS011;12052;53.478;10.182;2022-12-07T09:42:03;10.27;;;1.60;;
23743;SDS011;12052;53.478;10.182;2022-12-07T09:44:30;5.13;;;1.80;;
23743;SDS011;12052;53.478;10.182;2022-12-07T09:46:57;5.75;;;2.03;;
23743;SDS011;12052;53.478;10.182;2022-12-07T09:49:24;7.30;;;2.10;;
23743;SDS011;12052;53.478;10.182;2022-12-07T09:51:59;5.47;;;1.67;;
23743;SDS011;12052;53.478;10.182;2022-12-07T09:54:26;7.65;;;1.40;;
23743;SDS011;12052;53.478;10.182;2022-12-07T09:56:53;11.00;;;1.60;;
23743;SDS011;12052;53.478;10.182;2022-12-07T09:59:18;5.97;;;1.90;;
23743;SDS011;12052;53.478;10.182;2022-12-07T10:01:45;10.23;;;1.30;;
23743;SDS011;12052;53.478;10.182;2022-12-07T10:04:18;10.60;;;2.03;;
23743;SDS011;12052;53.478;10.182;2022-12-07T10:06:46;8.50;;;1.63;;
23743;SDS011;12052;53.478;10.182;2022-12-07T10:09:13;15.85;;;1.67;;
23743;SDS011;12052;53.478;10.182;2022-12-07T10:14:27;5.75;;;1.40;;
23743;SDS011;12052;53.478;10.182;2022-12-07T10:16:54;3.03;;;1.20;;
23743;SDS011;12052;53.478;10.182;2022-12-07T10:24:34;4.65;;;1.58;;
23743;SDS011;12052;53.478;10.182;2022-12-07T10:26:59;8.52;;;1.90;;
23743;SDS011;12052;53.478;10.182;2022-12-07T10:29:29;3.65;;;1.50;;
23743;SDS011;12052;53.478;10.182;2022-12-07T10:34:27;3.35;;;1.00;;
23743;SDS011;12052;53.478;10.182;2022-12-07T10:37:05;5.15;;;0.98;;
23743;SDS011;12052;53.478;10.182;2022-12-07T10:39:48;4.75;;;0.80;;
23743;SDS011;12052;53.478;10.182;2022-12-07T10:44:45;4.13;;;1.10;;
23743;SDS011;12052;53.478;10.182;2022-12-07T10:47:24;3.28;;;1.00;;
23743;SDS011;12052;53.478;10.182;2022-12-07T11:06:34;3.13;;;0.95;;
23743;SDS011;12052;53.478;10.182;2022-12-07T11:22:48;4.95;;;0.93;;
23743;SDS011;12052;53.478;10.182;2022-12-07T11:25:32;4.47;;;1.30;;
23743;SDS011;12052;53.478;10.182;2022-12-07T11:28:09;3.60;;;0.90;;
23743;SDS011;12052;53.478;10.182;2022-12-07T11:33:26;3.90;;;1.05;;
23743;SDS011;12052;53.478;10.182;2022-12-07T11:36:26;2.10;;;1.00;;
23743;SDS011;12052;53.478;10.182;2022-12-07T11:39:00;2.30;;;1.20;;
23743;SDS011;12052;53.478;10.182;2022-12-07T11:41:34;4.78;;;1.35;;
23743;SDS011;12052;53.478;10.182;2022-12-07T11:44:15;12.80;;;1.63;;
23743;SDS011;12052;53.478;10.182;2022-12-07T11:46:50;4.10;;;1.15;;
23743;SDS011;12052;53.478;10.182;2022-12-07T11:49:58;6.18;;;1.05;;
23743;SDS011;12052;53.478;10.182;2022-12-07T11:52:48;2.58;;;1.13;;
23743;SDS011;12052;53.478;10.182;2022-12-07T12:03:49;6.75;;;1.50;;
23743;SDS011;12052;53.478;10.182;2022-12-07T12:06:17;5.85;;;1.33;;
23743;SDS011;12052;53.478;10.182;2022-12-07T12:08:53;5.78;;;1.90;;
23743;SDS011;12052;53.478;10.182;2022-12-07T12:17:11;13.15;;;2.45;;
23743;SDS011;12052;53.478;10.182;2022-12-07T12:22:20;4.65;;;1.70;;
23743;SDS011;12052;53.478;10.182;2022-12-07T12:24:52;9.40;;;2.08;;
23743;SDS011;12052;53.478;10.182;2022-12-07T12:27:25;6.78;;;1.45;;
23743;SDS011;12052;53.478;10.182;2022-12-07T12:29:56;6.15;;;1.98;;
23743;SDS011;12052;53.478;10.182;2022-12-07T12:32:40;5.28;;;2.40;;
23743;SDS011;12052;53.478;10.182;2022-12-07T12:35:20;7.20;;;1.50;;
23743;SDS011;12052;53.478;10.182;2022-12-07T12:40:58;4.55;;;1.63;;
23743;SDS011;12052;53.478;10.182;2022-12-07T12:56:42;7.88;;;1.50;;
23743;SDS011;12052;53.478;10.182;2022-12-07T12:59:34;3.70;;;1.02;;
23743;SDS011;12052;53.478;10.182;2022-12-07T13:18:48;7.95;;;1.33;;
23743;SDS011;12052;53.478;10.182;2022-12-07T13:20:50;6.85;;;1.40;;
23743;SDS011;12052;53.478;10.182;2022-12-07T13:23:18;6.32;;;1.30;;
23743;SDS011;12052;53.478;10.182;2022-12-07T13:25:49;5.72;;;0.88;;
23743;SDS011;12052;53.478;10.182;2022-12-07T13:28:20;5.35;;;1.23;;
23743;SDS011;12052;53.478;10.182;2022-12-07T13:31:04;7.15;;;1.30;;
23743;SDS011;12052;53.478;10.182;2022-12-07T13:33:53;1.00;;;0.77;;
23743;SDS011;12052;53.478;10.182;2022-12-07T13:38:53;3.45;;;1.02;;
23743;SDS011;12052;53.478;10.182;2022-12-07T13:41:21;8.57;;;1.83;;
23743;SDS011;12052;53.478;10.182;2022-12-07T13:43:50;7.80;;;1.42;;
23743;SDS011;12052;53.478;10.182;2022-12-07T13:47:03;7.43;;;1.30;;
23743;SDS011;12052;53.478;10.182;2022-12-07T13:49:30;9.98;;;1.90;;
23743;SDS011;12052;53.478;10.182;2022-12-07T13:57:31;6.60;;;1.85;;
23743;SDS011;12052;53.478;10.182;2022-12-07T14:00:00;3.15;;;1.00;;
23743;SDS011;12052;53.478;10.182;2022-12-07T14:02:31;9.52;;;1.23;;
23743;SDS011;12052;53.478;10.182;2022-12-07T14:05:08;6.15;;;1.25;;
23743;SDS011;12052;53.478;10.182;2022-12-07T14:07:47;3.78;;;0.90;;
23743;SDS011;12052;53.478;10.182;2022-12-07T14:12:52;2.85;;;0.95;;
23743;SDS011;12052;53.478;10.182;2022-12-07T14:15:23;8.88;;;1.45;;
23743;SDS011;12052;53.478;10.182;2022-12-07T14:17:53;5.53;;;1.17;;
23743;SDS011;12052;53.478;10.182;2022-12-07T14:23:02;4.30;;;1.10;;
23743;SDS011;12052;53.478;10.182;2022-12-07T14:25:44;10.05;;;1.23;;
23743;SDS011;12052;53.478;10.182;2022-12-07T14:28:27;3.28;;;1.10;;
23743;SDS011;12052;53.478;10.182;2022-12-07T14:30:54;5.75;;;1.30;;
23743;SDS011;12052;53.478;10.182;2022-12-07T14:33:20;7.57;;;1.50;;
23743;SDS011;12052;53.478;10.182;2022-12-07T14:35:47;11.52;;;1.25;;
23743;SDS011;12052;53.478;10.182;2022-12-07T14:38:14;6.45;;;0.90;;
23743;SDS011;12052;53.478;10.182;2022-12-07T14:40:40;3.58;;;1.38;;
23743;SDS011;12052;53.478;10.182;2022-12-07T14:43:09;7.38;;;1.45;;
23743;SDS011;12052;53.478;10.182;2022-12-07T14:45:37;8.38;;;1.50;;
23743;SDS011;12052;53.478;10.182;2022-12-07T14:48:04;2.85;;;1.00;;
23743;SDS011;12052;53.478;10.182;2022-12-07T14:50:30;6.50;;;0.88;;
23743;SDS011;12052;53.478;10.182;2022-12-07T14:53:01;2.72;;;1.00;;
23743;SDS011;12052;53.478;10.182;2022-12-07T14:55:36;13.48;;;1.55;;
23743;SDS011;12052;53.478;10.182;2022-12-07T14:58:02;4.35;;;1.70;;
23743;SDS011;12052;53.478;10.182;2022-12-07T15:00:27;3.67;;;1.48;;
23743;SDS011;12052;53.478;10.182;2022-12-07T15:02:54;4.78;;;1.45;;
23743;SDS011;12052;53.478;10.182;2022-12-07T15:05:20;4.93;;;1.40;;
23743;SDS011;12052;53.478;10.182;2022-12-07T15:07:46;5.78;;;1.60;;
23743;SDS011;12052;53.478;10.182;2022-12-07T15:10:15;3.75;;;1.42;;
23743;SDS011;12052;53.478;10.182;2022-12-07T15:12:54;9.02;;;1.40;;
23743;SDS011;12052;53.478;10.182;2022-12-07T15:15:40;6.60;;;1.40;;
23743;SDS011;12052;53.478;10.182;2022-12-07T15:18:06;9.32;;;1.88;;
23743;SDS011;12052;53.478;10.182;2022-12-07T15:20:32;7.70;;;1.92;;
23743;SDS011;12052;53.478;10.182;2022-12-07T15:22:57;12.15;;;2.08;;
23743;SDS011;12052;53.478;10.182;2022-12-07T15:25:23;7.65;;;1.35;;
23743;SDS011;12052;53.478;10.182;2022-12-07T15:27:49;4.45;;;1.98;;
23743;SDS011;12052;53.478;10.182;2022-12-07T15:30:14;6.63;;;2.28;;
23743;SDS011;12052;53.478;10.182;2022-12-07T15:32:40;14.02;;;4.90;;
23743;SDS011;12052;53.478;10.182;2022-12-07T15:35:06;12.48;;;4.07;;
23743;SDS011;12052;53.478;10.182;2022-12-07T15:37:32;9.93;;;3.55;;
23743;SDS011;12052;53.478;10.182;2022-12-07T15:39:58;8.68;;;5.25;;
23743;SDS011;12052;53.478;10.182;2022-12-07T15:42:23;11.73;;;4.32;;
23743;SDS011;12052;53.478;10.182;2022-12-07T15:44:49;7.65;;;2.97;;
23743;SDS011;12052;53.478;10.182;2022-12-07T15:47:30;5.47;;;2.85;;
23743;SDS011;12052;53.478;10.182;2022-12-07T15:49:56;8.02;;;3.08;;
23743;SDS011;12052;53.478;10.182;2022-12-07T15:52:22;11.75;;;4.15;;
23743;SDS011;12052;53.478;10.182;2022-12-07T15:54:48;6.00;;;4.28;;
23743;SDS011;12052;53.478;10.182;2022-12-07T15:57:13;7.57;;;2.63;;
23743;SDS011;12052;53.478;10.182;2022-12-07T15:59:39;8.95;;;2.97;;
23743;SDS011;12052;53.478;10.182;2022-12-07T16:02:05;9.30;;;2.42;;
23743;SDS011;12052;53.478;10.182;2022-12-07T16:04:30;11.32;;;2.00;;
23743;SDS011;12052;53.478;10.182;2022-12-07T16:06:56;5.78;;;1.45;;
23743;SDS011;12052;53.478;10.182;2022-12-07T16:09:22;4.95;;;1.90;;
23743;SDS011;12052;53.478;10.182;2022-12-07T16:11:48;6.95;;;1.50;;
23743;SDS011;12052;53.478;10.182;2022-12-07T16:14:15;4.50;;;1.48;;
23743;SDS011;12052;53.478;10.182;2022-12-07T16:16:41;5.72;;;1.77;;
23743;SDS011;12052;53.478;10.182;2022-12-07T16:19:07;4.18;;;1.55;;
23743;SDS011;12052;53.478;10.182;2022-12-07T16:21:33;3.10;;;1.65;;
23743;SDS011;12052;53.478;10.182;2022-12-07T16:24:00;7.10;;;1.67;;
23743;SDS011;12052;53.478;10.182;2022-12-07T16:26:26;6.38;;;2.72;;
23743;SDS011;12052;53.478;10.182;2022-12-07T16:28:52;3.20;;;1.50;;
23743;SDS011;12052;53.478;10.182;2022-12-07T16:31:20;9.02;;;2.35;;
23743;SDS011;12052;53.478;10.182;2022-12-07T16:33:47;8.70;;;1.77;;
23743;SDS011;12052;53.478;10.182;2022-12-07T16:36:14;6.65;;;2.30;;
23743;SDS011;12052;53.478;10.182;2022-12-07T16:38:41;6.32;;;1.63;;
23743;SDS011;12052;53.478;10.182;2022-12-07T16:41:07;5.30;;;2.22;;
23743;SDS011;12052;53.478;10.182;2022-12-07T16:43:34;4.78;;;1.83;;
23743;SDS011;12052;53.478;10.182;2022-12-07T16:46:00;9.50;;;1.88;;
23743;SDS011;12052;53.478;10.182;2022-12-07T16:48:26;10.25;;;2.15;;
23743;SDS011;12052;53.478;10.182;2022-12-07T16:50:52;6.75;;;2.00;;
23743;SDS011;12052;53.478;10.182;2022-12-07T16:53:18;7.25;;;2.10;;
23743;SDS011;12052;53.478;10.182;2022-12-07T16:55:45;4.88;;;2.67;;
23743;SDS011;12052;53.478;10.182;2022-12-07T16:58:11;6.55;;;2.30;;